createdAt,value
2022-08-07T00:00:18.749Z,59.52
2022-08-07T00:02:46.911Z,59.82
2022-08-07T00:05:14.123Z,60.31
2022-08-07T00:07:41.739Z,60.31
2022-08-07T00:10:27.116Z,60.22
2022-08-07T00:12:59.790Z,60.11
2022-08-07T00:15:35.988Z,60.44
2022-08-07T00:18:24.043Z,60.47
2022-08-07T00:21:02.034Z,60.64
2022-08-07T00:23:37.688Z,60.52
2022-08-07T00:26:18.532Z,60.93
2022-08-07T00:28:58.195Z,60.61
2022-08-07T00:31:37.452Z,60.93
2022-08-07T00:34:09.437Z,60.78
2022-08-07T00:36:38.621Z,60.67
2022-08-07T00:39:16.127Z,61.03
2022-08-07T00:42:02.351Z,61.13
2022-08-07T00:44:33.877Z,61.52
2022-08-07T00:47:06.370Z,61.20
2022-08-07T00:50:20.271Z,61.27
2022-08-07T00:52:29.903Z,60.84
2022-08-07T00:55:04.616Z,60.53
2022-08-07T00:57:37.735Z,60.96
2022-08-07T01:00:12.175Z,60.84
2022-08-07T01:02:40.555Z,60.72
2022-08-07T01:05:19.438Z,60.95
2022-08-07T01:07:47.417Z,60.87
2022-08-07T01:10:18.311Z,61.38
2022-08-07T01:12:53.368Z,60.97
2022-08-07T01:16:00.603Z,60.74
2022-08-07T01:18:17.625Z,60.79
2022-08-07T01:21:07.345Z,60.84
2022-08-07T01:23:51.579Z,60.57
2022-08-07T01:26:21.098Z,61.21
2022-08-07T01:28:51.678Z,60.71
2022-08-07T01:31:41.609Z,60.99
2022-08-07T01:34:14.491Z,60.89
2022-08-07T01:36:44.471Z,61.33
2022-08-07T01:39:24.401Z,61.37
2022-08-07T01:42:39.442Z,61.81
2022-08-07T01:44:57.656Z,61.77
2022-08-07T01:48:18.115Z,62.03
2022-08-07T01:50:13.197Z,62.66
2022-08-07T01:52:49.643Z,62.70
2022-08-07T01:55:33.410Z,62.92
2022-08-07T01:58:28.981Z,63.38
2022-08-07T02:01:09.308Z,63.61
2022-08-07T02:03:56.748Z,64.23
2022-08-07T02:06:31.294Z,64.12
2022-08-07T02:09:04.649Z,64.62
2022-08-07T02:12:02.848Z,64.90
2022-08-07T02:14:35.903Z,64.56
2022-08-07T02:17:06.170Z,64.67
2022-08-07T02:20:06.801Z,64.38
2022-08-07T02:22:25.830Z,64.50
2022-08-07T02:24:57.757Z,64.92
2022-08-07T02:27:34.239Z,64.79
2022-08-07T02:30:07.141Z,64.88
2022-08-07T02:32:39.678Z,64.30
2022-08-07T02:36:29.245Z,64.52
2022-08-07T02:38:16.297Z,64.42
2022-08-07T02:40:46.527Z,64.52
2022-08-07T02:43:15.744Z,64.59
2022-08-07T02:45:58.416Z,64.88
2022-08-07T02:48:30.411Z,64.65
2022-08-07T02:51:03.503Z,64.98
2022-08-07T02:53:38.487Z,64.95
2022-08-07T02:56:21.046Z,65.06
2022-08-07T02:58:54.292Z,65.24
2022-08-07T03:01:35.978Z,65.24
2022-08-07T03:04:12.791Z,64.86
2022-08-07T03:06:44.788Z,64.64
2022-08-07T03:09:15.019Z,64.70
2022-08-07T03:12:08.128Z,64.77
2022-08-07T03:14:52.277Z,64.43
2022-08-07T03:17:22.112Z,64.59
2022-08-07T03:19:55.331Z,64.50
2022-08-07T03:22:29.562Z,64.14
2022-08-07T03:25:00.377Z,64.38
2022-08-07T03:27:59.383Z,64.13
2022-08-07T03:30:21.819Z,64.66
2022-08-07T03:32:58.588Z,64.38
2022-08-07T03:35:43.509Z,64.41
2022-08-07T03:38:20.822Z,64.26
2022-08-07T03:40:53.867Z,64.66
2022-08-07T03:43:32.434Z,64.15
2022-08-07T03:46:02.965Z,64.76
2022-08-07T03:48:32.305Z,64.64
2022-08-07T03:51:02.410Z,64.68
2022-08-07T03:54:05.694Z,64.93
2022-08-07T03:56:33.145Z,64.59
2022-08-07T03:59:09.918Z,64.52
2022-08-07T04:01:45.580Z,64.93
2022-08-07T04:04:17.831Z,64.88
2022-08-07T04:06:50.918Z,64.93
2022-08-07T04:09:23.377Z,64.84
2022-08-07T04:12:23.603Z,65.11
2022-08-07T04:14:46.163Z,65.14
2022-08-07T04:17:21.084Z,64.74
2022-08-07T04:20:10.507Z,64.69
2022-08-07T04:22:40.722Z,64.80
2022-08-07T04:25:24.041Z,63.63
2022-08-07T04:27:59.438Z,63.81
2022-08-07T04:30:39.285Z,64.04
2022-08-07T04:33:21.026Z,64.47
2022-08-07T04:35:53.271Z,64.07
2022-08-07T04:38:27.237Z,63.38
2022-08-07T04:40:56.827Z,63.05
2022-08-07T04:44:12.056Z,63.47
2022-08-07T04:47:04.717Z,63.06
2022-08-07T04:50:04.008Z,62.39
2022-08-07T04:52:54.098Z,62.61
2022-08-07T04:58:12.970Z,63.06
2022-08-07T04:59:17.519Z,62.73
2022-08-07T05:01:30.429Z,62.93
2022-08-07T05:04:12.465Z,62.22
2022-08-07T05:07:19.853Z,61.96
2022-08-07T05:10:01.050Z,61.84
2022-08-07T05:12:38.464Z,61.39
2022-08-07T05:15:22.979Z,61.92
2022-08-07T05:18:01.607Z,62.11
2022-08-07T05:20:59.276Z,61.82
2022-08-07T05:23:41.486Z,61.52
2022-08-07T05:26:24.952Z,61.31
2022-08-07T05:29:04.136Z,61.10
2022-08-07T05:31:38.759Z,61.34
2022-08-07T05:34:15.653Z,60.60
2022-08-07T05:36:49.207Z,60.59
2022-08-07T05:40:13.596Z,61.46
2022-08-07T05:42:34.539Z,60.55
2022-08-07T05:45:25.751Z,59.58
2022-08-07T05:48:01.346Z,59.52
2022-08-07T05:50:34.458Z,58.03
2022-08-07T05:53:02.907Z,56.85
2022-08-07T05:56:02.781Z,56.73
2022-08-07T05:58:36.178Z,56.77
2022-08-07T06:01:08.481Z,56.50
2022-08-07T06:03:56.279Z,56.93
2022-08-07T06:06:29.747Z,54.91
2022-08-07T06:09:04.701Z,56.13
2022-08-07T06:11:35.808Z,55.39
2022-08-07T06:14:12.653Z,55.01
2022-08-07T06:16:55.966Z,55.68
2022-08-07T06:19:48.048Z,55.61
2022-08-07T06:22:23.056Z,56.11
2022-08-07T06:25:01.245Z,55.51
2022-08-07T06:28:00.154Z,55.48
2022-08-07T06:30:24.206Z,55.72
2022-08-07T06:33:09.941Z,55.23
2022-08-07T06:36:06.244Z,55.54
2022-08-07T06:38:33.296Z,55.86
2022-08-07T06:41:09.716Z,55.61
2022-08-07T06:43:46.628Z,55.17
2022-08-07T06:46:31.348Z,55.37
2022-08-07T06:49:04.030Z,55.48
2022-08-07T06:51:36.295Z,54.63
2022-08-07T06:55:32.195Z,54.18
2022-08-07T06:57:09.767Z,54.08
2022-08-07T07:00:14.489Z,54.10
2022-08-07T07:02:48.581Z,53.57
2022-08-07T07:06:05.488Z,52.81
2022-08-07T07:08:12.282Z,53.54
2022-08-07T07:10:47.549Z,52.90
2022-08-07T07:13:43.698Z,53.77
2022-08-07T07:16:31.508Z,54.36
2022-08-07T07:19:54.398Z,54.28
2022-08-07T07:22:04.983Z,54.26
2022-08-07T07:24:42.951Z,53.74
2022-08-07T07:27:17.277Z,54.46
2022-08-07T07:30:07.495Z,52.71
2022-08-07T07:32:40.643Z,54.66
2022-08-07T07:35:12.494Z,52.26
2022-08-07T07:37:49.652Z,50.68
2022-08-07T07:40:26.131Z,50.74
2022-08-07T07:42:55.874Z,51.12
2022-08-07T07:46:39.829Z,51.79
2022-08-07T07:48:24.337Z,52.18
2022-08-07T07:51:07.996Z,52.46
2022-08-07T07:53:50.404Z,52.57
2022-08-07T07:56:30.421Z,50.84
2022-08-07T07:59:03.098Z,51.43
2022-08-07T08:02:02.128Z,51.59
2022-08-07T08:04:25.791Z,52.78
2022-08-07T08:06:55.480Z,51.02
2022-08-07T08:09:29.528Z,50.86
2022-08-07T08:12:01.928Z,51.59
2022-08-07T08:14:36.627Z,52.46
2022-08-07T08:17:55.599Z,52.95
2022-08-07T08:20:17.328Z,52.88
2022-08-07T08:23:10.196Z,53.55
2022-08-07T08:26:03.344Z,53.88
2022-08-07T08:28:43.610Z,53.40
2022-08-07T08:31:22.814Z,53.79
2022-08-07T08:33:59.262Z,53.25
2022-08-07T08:36:32.368Z,53.41
2022-08-07T08:39:02.969Z,52.94
2022-08-07T08:41:57.091Z,53.56
2022-08-07T08:45:12.987Z,54.28
2022-08-07T08:48:03.588Z,52.99
2022-08-07T08:50:39.573Z,52.79
2022-08-07T08:53:47.659Z,53.44
2022-08-07T08:56:24.846Z,53.41
2022-08-07T08:59:16.296Z,54.25
2022-08-07T09:02:02.292Z,54.02
2022-08-07T09:04:54.523Z,54.31
2022-08-07T09:07:25.358Z,53.99
2022-08-07T09:10:03.227Z,54.21
2022-08-07T09:12:32.183Z,53.75
2022-08-07T09:16:25.606Z,53.50
2022-08-07T09:18:41.759Z,52.89
2022-08-07T09:21:57.600Z,53.37
2022-08-07T09:25:00.344Z,53.25
2022-08-07T09:27:59.530Z,52.97
2022-08-07T09:30:46.366Z,51.89
2022-08-07T09:33:56.968Z,52.06
2022-08-07T09:36:36.891Z,50.98
2022-08-07T09:39:53.000Z,50.95
2022-08-07T09:42:57.196Z,52.00
2022-08-07T09:47:52.419Z,52.19
2022-08-07T09:49:59.461Z,51.99
2022-08-07T09:52:15.801Z,51.80
2022-08-07T09:54:58.222Z,50.85
2022-08-07T09:57:59.530Z,50.10
2022-08-07T10:00:32.918Z,51.26
2022-08-07T10:04:07.240Z,51.06
2022-08-07T10:06:49.051Z,51.06
2022-08-07T10:09:42.802Z,49.31
2022-08-07T10:12:59.876Z,48.41
2022-08-07T10:15:44.963Z,48.69
2022-08-07T10:18:27.120Z,48.81
2022-08-07T10:22:12.555Z,47.89
2022-08-07T10:24:27.062Z,48.20
2022-08-07T10:27:19.569Z,48.47
2022-08-07T10:30:12.024Z,47.96
2022-08-07T10:32:52.464Z,47.80
2022-08-07T10:35:56.601Z,47.82
2022-08-07T10:38:48.448Z,47.08
2022-08-07T10:41:53.131Z,46.92
2022-08-07T10:44:38.273Z,47.23
2022-08-07T10:47:26.815Z,47.61
2022-08-07T10:50:12.904Z,45.67
2022-08-07T10:52:53.696Z,45.05
2022-08-07T10:55:38.068Z,45.39
2022-08-07T10:58:40.476Z,45.63
2022-08-07T11:01:35.801Z,44.76
2022-08-07T11:04:40.747Z,45.99
2022-08-07T11:07:56.962Z,45.99
2022-08-07T11:10:28.523Z,46.06
2022-08-07T11:13:04.623Z,45.28
2022-08-07T11:15:38.605Z,44.29
2022-08-07T11:18:36.056Z,43.54
2022-08-07T11:21:11.402Z,44.96
2022-08-07T11:23:48.463Z,44.75
2022-08-07T11:26:48.325Z,45.75
2022-08-07T11:29:41.883Z,46.26
2022-08-07T11:32:25.533Z,45.81
2022-08-07T11:35:07.097Z,44.58
2022-08-07T11:37:58.088Z,45.94
2022-08-07T11:40:59.681Z,45.90
2022-08-07T11:43:54.327Z,45.70
2022-08-07T11:46:28.763Z,46.94
2022-08-07T11:49:50.315Z,46.66
2022-08-07T11:52:19.726Z,45.60
2022-08-07T11:56:12.012Z,46.14
2022-08-07T11:59:00.711Z,46.66
2022-08-07T12:02:20.600Z,47.39
2022-08-07T12:05:09.073Z,46.13
2022-08-07T12:08:25.852Z,46.58
2022-08-07T12:11:24.049Z,45.32
2022-08-07T12:14:22.077Z,45.72
2022-08-07T12:16:58.445Z,45.34
2022-08-07T12:20:02.520Z,46.06
2022-08-07T12:22:47.262Z,45.81
2022-08-07T12:26:05.400Z,45.68
2022-08-07T12:28:55.133Z,45.65
2022-08-07T12:31:53.042Z,45.40
2022-08-07T12:34:32.043Z,43.72
2022-08-07T12:37:00.009Z,44.60
2022-08-07T12:39:44.409Z,45.34
2022-08-07T12:42:27.870Z,44.69
2022-08-07T12:44:59.231Z,44.91
2022-08-07T12:47:33.560Z,45.00
2022-08-07T12:50:40.356Z,44.13
2022-08-07T12:54:02.926Z,44.44
2022-08-07T12:56:51.115Z,43.85
2022-08-07T12:59:33.376Z,43.97
2022-08-07T13:02:42.524Z,44.01
2022-08-07T13:06:03.333Z,42.44
2022-08-07T13:08:51.883Z,41.28
2022-08-07T13:12:02.986Z,42.21
2022-08-07T13:14:55.319Z,42.00
2022-08-07T13:17:57.796Z,41.63
2022-08-07T13:20:46.827Z,41.04
2022-08-07T13:24:01.117Z,39.90
2022-08-07T13:26:19.984Z,40.98
2022-08-07T13:29:03.884Z,41.73
2022-08-07T13:31:55.099Z,41.06
2022-08-07T13:34:44.852Z,41.37
2022-08-07T13:37:34.050Z,40.86
2022-08-07T13:40:35.230Z,40.27
2022-08-07T13:42:58.553Z,41.76
2022-08-07T13:46:21.529Z,41.91
2022-08-07T13:48:27.714Z,40.90
2022-08-07T13:51:27.206Z,41.68
2022-08-07T13:54:03.700Z,42.17
2022-08-07T13:56:36.342Z,41.88
2022-08-07T13:59:24.700Z,42.12
2022-08-07T14:02:12.735Z,43.42
2022-08-07T14:04:54.654Z,42.29
2022-08-07T14:07:30.605Z,42.79
2022-08-07T14:10:15.020Z,43.47
2022-08-07T14:12:57.645Z,43.40
2022-08-07T14:15:42.937Z,43.66
2022-08-07T14:18:30.614Z,43.51
2022-08-07T14:22:03.054Z,44.16
2022-08-07T14:24:33.639Z,43.29
2022-08-07T14:28:09.921Z,42.96
2022-08-07T14:30:06.503Z,43.23
2022-08-07T14:32:54.776Z,44.01
2022-08-07T14:35:45.760Z,44.22
2022-08-07T14:38:26.839Z,44.68
2022-08-07T14:41:06.337Z,44.49
2022-08-07T14:43:55.355Z,44.27
2022-08-07T14:46:31.218Z,43.94
2022-08-07T14:52:05.048Z,43.96
2022-08-07T14:54:41.980Z,43.16
2022-08-07T15:00:06.758Z,44.67
2022-08-07T15:02:39.077Z,43.94
2022-08-07T15:05:20.482Z,43.98
2022-08-07T15:07:52.614Z,43.48
2022-08-07T15:10:26.138Z,43.95
2022-08-07T15:13:05.726Z,43.34
2022-08-07T15:15:43.339Z,43.66
2022-08-07T15:18:35.797Z,44.49
2022-08-07T15:21:44.164Z,44.69
2022-08-07T15:25:16.312Z,44.38
2022-08-07T15:27:06.289Z,44.53
2022-08-07T15:30:10.283Z,45.25
2022-08-07T15:32:39.570Z,45.65
2022-08-07T15:36:01.743Z,45.69
2022-08-07T15:38:29.879Z,45.83
2022-08-07T15:41:23.488Z,45.70
2022-08-07T15:44:07.047Z,46.14
2022-08-07T15:50:04.006Z,46.09
2022-08-07T15:52:29.574Z,46.66
2022-08-07T15:55:02.867Z,46.79
2022-08-07T15:57:47.644Z,46.14
2022-08-07T16:00:31.029Z,45.50
2022-08-07T16:03:06.220Z,46.14
2022-08-07T16:05:38.558Z,46.01
2022-08-07T16:08:32.210Z,44.87
2022-08-07T16:11:25.431Z,45.78
2022-08-07T16:14:02.709Z,45.51
2022-08-07T16:16:49.413Z,44.93
2022-08-07T16:19:59.035Z,44.68
2022-08-07T16:22:37.783Z,45.75
2022-08-07T16:25:54.019Z,46.06
2022-08-07T16:30:07.484Z,45.91
2022-08-07T16:31:57.773Z,46.08
2022-08-07T16:34:52.492Z,46.35
2022-08-07T16:38:04.282Z,45.64
2022-08-07T16:40:51.129Z,45.97
2022-08-07T16:44:08.627Z,46.94
2022-08-07T16:47:16.754Z,46.47
2022-08-07T16:50:20.855Z,47.00
2022-08-07T16:52:52.379Z,46.78
2022-08-07T16:55:47.119Z,47.00
2022-08-07T16:58:22.513Z,47.17
2022-08-07T17:01:07.823Z,46.78
2022-08-07T17:03:59.864Z,47.02
2022-08-07T17:06:57.913Z,46.44
2022-08-07T17:10:06.724Z,47.59
2022-08-07T17:12:35.662Z,47.20
2022-08-07T17:15:15.474Z,47.65
2022-08-07T17:17:47.479Z,47.78
2022-08-07T17:20:22.154Z,47.87
2022-08-07T17:23:15.047Z,47.34
2022-08-07T17:26:23.543Z,47.89
2022-08-07T17:30:14.245Z,47.39
2022-08-07T17:32:31.410Z,47.36
2022-08-07T17:35:49.743Z,49.09
2022-08-07T17:38:33.164Z,47.99
2022-08-07T17:42:02.225Z,47.77
2022-08-07T17:44:33.241Z,47.80
2022-08-07T17:47:08.662Z,47.69
2022-08-07T17:50:02.090Z,48.91
2022-08-07T17:52:52.742Z,48.26
2022-08-07T17:56:01.304Z,48.36
2022-08-07T17:58:50.291Z,47.74
2022-08-07T18:01:37.212Z,47.86
2022-08-07T18:04:45.597Z,47.80
2022-08-07T18:07:34.252Z,47.67
2022-08-07T18:10:32.132Z,48.16
2022-08-07T18:13:01.274Z,47.91
2022-08-07T18:15:37.181Z,48.48
2022-08-07T18:18:46.459Z,49.21
2022-08-07T18:21:42.332Z,49.32
2022-08-07T18:24:33.104Z,48.13
2022-08-07T18:27:39.169Z,48.29
2022-08-07T18:30:32.809Z,48.74
2022-08-07T18:33:31.407Z,48.81
2022-08-07T18:35:58.454Z,49.04
2022-08-07T18:38:56.910Z,49.01
2022-08-07T18:42:01.722Z,49.14
2022-08-07T18:45:43.783Z,49.44
2022-08-07T18:48:08.432Z,49.73
2022-08-07T18:50:58.072Z,49.90
2022-08-07T18:54:03.277Z,50.27
2022-08-07T18:56:58.257Z,50.42
2022-08-07T18:59:59.126Z,50.22
2022-08-07T19:02:42.343Z,50.29
2022-08-07T19:06:02.051Z,49.90
2022-08-07T19:08:46.383Z,49.68
2022-08-07T19:11:36.533Z,50.76
2022-08-07T19:14:20.252Z,50.67
2022-08-07T19:17:04.845Z,50.29
2022-08-07T19:19:59.008Z,49.74
2022-08-07T19:22:30.821Z,49.90
2022-08-07T19:25:06.720Z,49.74
2022-08-07T19:28:58.190Z,49.58
2022-08-07T19:31:00.302Z,49.64
2022-08-07T19:33:33.302Z,49.90
2022-08-07T19:36:04.335Z,49.80
2022-08-07T19:38:53.001Z,50.08
2022-08-07T19:41:39.150Z,50.54
2022-08-07T19:44:22.101Z,49.73
2022-08-07T19:46:57.675Z,49.75
2022-08-07T19:49:57.114Z,49.59
2022-08-07T19:52:19.723Z,48.93
2022-08-07T19:54:56.631Z,49.56
2022-08-07T19:58:00.291Z,48.68
2022-08-07T20:00:29.238Z,47.79
2022-08-07T20:03:35.687Z,46.75
2022-08-07T20:06:03.271Z,46.23
2022-08-07T20:08:34.621Z,46.67
2022-08-07T20:11:10.265Z,46.97
2022-08-07T20:13:53.167Z,47.27
2022-08-07T20:16:34.788Z,47.02
2022-08-07T20:19:10.365Z,46.84
2022-08-07T20:21:48.091Z,46.74
2022-08-07T20:24:23.269Z,46.65
2022-08-07T20:26:54.850Z,46.87
2022-08-07T20:29:49.551Z,47.21
2022-08-07T20:32:25.789Z,47.22
2022-08-07T20:34:57.805Z,48.16
2022-08-07T20:37:55.361Z,47.46
2022-08-07T20:40:33.480Z,47.64
2022-08-07T20:43:09.567Z,47.17
2022-08-07T20:46:27.635Z,47.41
2022-08-07T20:48:35.005Z,47.40
2022-08-07T20:51:09.805Z,46.63
2022-08-07T20:54:03.140Z,47.08
2022-08-07T20:56:32.286Z,46.25
2022-08-07T20:59:05.068Z,46.90
2022-08-07T21:01:45.368Z,47.07
2022-08-07T21:04:22.755Z,47.09
2022-08-07T21:06:55.386Z,47.57
2022-08-07T21:09:51.519Z,47.13
2022-08-07T21:12:26.112Z,47.61
2022-08-07T21:14:58.872Z,46.79
2022-08-07T21:18:03.233Z,46.33
2022-08-07T21:20:26.600Z,46.00
2022-08-07T21:22:59.419Z,46.60
2022-08-07T21:25:56.808Z,46.32
2022-08-07T21:28:50.336Z,45.84
2022-08-07T21:31:49.933Z,46.09
2022-08-07T21:34:46.018Z,45.96
2022-08-07T21:37:57.206Z,46.21
2022-08-07T21:40:52.449Z,44.91
2022-08-07T21:43:47.167Z,45.76
2022-08-07T21:46:42.748Z,45.12
2022-08-07T21:49:26.931Z,46.09
2022-08-07T21:52:09.091Z,46.46
2022-08-07T21:55:27.738Z,47.10
2022-08-07T21:58:22.143Z,47.37
2022-08-07T22:01:03.238Z,48.24
2022-08-07T22:04:02.555Z,47.76
2022-08-07T22:06:37.256Z,47.64
2022-08-07T22:09:13.948Z,47.47
2022-08-07T22:11:53.306Z,47.53
2022-08-07T22:14:59.483Z,49.23
2022-08-07T22:17:36.225Z,48.66
2022-08-07T22:20:33.813Z,48.80
2022-08-07T22:23:21.623Z,48.84
2022-08-07T22:26:23.535Z,49.37
2022-08-07T22:29:38.114Z,49.00
2022-08-07T22:32:35.465Z,48.28
2022-08-07T22:35:05.046Z,49.25
2022-08-07T22:38:06.595Z,49.40
2022-08-07T22:40:43.315Z,49.14
2022-08-07T22:43:14.626Z,49.01
2022-08-07T22:46:21.519Z,47.62
2022-08-07T22:49:16.497Z,46.05
2022-08-07T22:52:02.492Z,45.60
2022-08-07T22:55:17.020Z,45.22
2022-08-07T22:57:50.818Z,45.23
2022-08-07T23:00:32.513Z,45.32
2022-08-07T23:03:21.321Z,45.05
2022-08-07T23:06:16.636Z,44.34
2022-08-07T23:10:04.866Z,44.39
2022-08-07T23:12:00.647Z,45.09
2022-08-07T23:14:33.568Z,44.89
2022-08-07T23:17:23.942Z,44.90
2022-08-07T23:20:52.406Z,44.88
2022-08-07T23:24:05.176Z,44.08
2022-08-07T23:26:54.964Z,44.83
2022-08-07T23:30:37.465Z,44.60
2022-08-07T23:34:34.907Z,44.61
2022-08-07T23:36:10.722Z,44.27
2022-08-07T23:38:54.653Z,44.81
2022-08-07T23:41:47.717Z,43.78
2022-08-07T23:44:45.634Z,44.56
2022-08-07T23:48:02.660Z,44.27
2022-08-07T23:50:33.502Z,44.59
2022-08-07T23:53:22.903Z,45.33
2022-08-07T23:56:31.312Z,44.42
